sensor_id;sensor_type;location;lat;lon;timestamp;pressure;altitude;pressure_sealevel;temperature;humidity
50977;BME280;36992;48.200;12.418;2023-03-03T00:02:25;96759.53;;;6.97;48.45
50977;BME280;36992;48.200;12.418;2023-03-03T00:04:52;96759.28;;;6.93;48.83
50977;BME280;36992;48.200;12.418;2023-03-03T00:07:18;96760.06;;;6.88;48.61
50977;BME280;36992;48.200;12.418;2023-03-03T00:09:47;96771.31;;;6.85;48.60
50977;BME280;36992;48.200;12.418;2023-03-03T00:12:20;96768.88;;;6.84;48.72
50977;BME280;36992;48.200;12.418;2023-03-03T00:14:49;96767.00;;;6.79;48.90
50977;BME280;36992;48.200;12.418;2023-03-03T00:17:20;96772.91;;;6.76;48.42
50977;BME280;36992;48.200;12.418;2023-03-03T00:19:47;96760.59;;;6.70;49.35
50977;BME280;36992;48.200;12.418;2023-03-03T00:22:24;96763.78;;;6.72;48.72
50977;BME280;36992;48.200;12.418;2023-03-03T00:24:52;96768.31;;;6.66;49.36
50977;BME280;36992;48.200;12.418;2023-03-03T00:27:27;96766.47;;;6.67;48.72
50977;BME280;36992;48.200;12.418;2023-03-03T00:29:57;96767.53;;;6.66;49.33
50977;BME280;36992;48.200;12.418;2023-03-03T00:32:26;96771.28;;;6.65;49.31
50977;BME280;36992;48.200;12.418;2023-03-03T00:34:54;96773.97;;;6.65;49.32
50977;BME280;36992;48.200;12.418;2023-03-03T00:37:25;96767.28;;;6.67;49.40
50977;BME280;36992;48.200;12.418;2023-03-03T00:39:52;96766.72;;;6.65;48.76
50977;BME280;36992;48.200;12.418;2023-03-03T00:42:19;96773.97;;;6.65;49.45
50977;BME280;36992;48.200;12.418;2023-03-03T00:44:47;96772.38;;;6.64;48.92
50977;BME280;36992;48.200;12.418;2023-03-03T00:47:25;96775.03;;;6.64;48.81
50977;BME280;36992;48.200;12.418;2023-03-03T00:49:54;96770.44;;;6.59;49.05
50977;BME280;36992;48.200;12.418;2023-03-03T00:52:23;96776.63;;;6.59;49.04
50977;BME280;36992;48.200;12.418;2023-03-03T00:54:53;96782.78;;;6.55;49.24
50977;BME280;36992;48.200;12.418;2023-03-03T00:57:19;96783.03;;;6.53;49.63
50977;BME280;36992;48.200;12.418;2023-03-03T00:59:45;96779.81;;;6.51;49.65
50977;BME280;36992;48.200;12.418;2023-03-03T01:02:12;96781.44;;;6.52;49.61
50977;BME280;36992;48.200;12.418;2023-03-03T01:04:40;96783.03;;;6.53;49.75
50977;BME280;36992;48.200;12.418;2023-03-03T01:07:07;96786.78;;;6.52;49.74
50977;BME280;36992;48.200;12.418;2023-03-03T01:09:34;96788.38;;;6.53;49.38
50977;BME280;36992;48.200;12.418;2023-03-03T01:12:00;96788.38;;;6.53;49.58
50977;BME280;36992;48.200;12.418;2023-03-03T01:14:27;96788.13;;;6.55;49.37
50977;BME280;36992;48.200;12.418;2023-03-03T01:16:53;96791.59;;;6.55;49.06
50977;BME280;36992;48.200;12.418;2023-03-03T01:19:20;96783.84;;;6.54;49.56
50977;BME280;36992;48.200;12.418;2023-03-03T01:21:47;96791.59;;;6.55;49.40
50977;BME280;36992;48.200;12.418;2023-03-03T01:24:14;96789.47;;;6.52;49.46
50977;BME280;36992;48.200;12.418;2023-03-03T01:26:40;96783.28;;;6.52;49.55
50977;BME280;36992;48.200;12.418;2023-03-03T01:29:07;96782.50;;;6.51;49.58
50977;BME280;36992;48.200;12.418;2023-03-03T01:31:33;96789.72;;;6.51;49.20
50977;BME280;36992;48.200;12.418;2023-03-03T01:34:00;96788.91;;;6.50;49.58
50977;BME280;36992;48.200;12.418;2023-03-03T01:36:27;96785.44;;;6.50;49.50
50977;BME280;36992;48.200;12.418;2023-03-03T01:38:55;96777.16;;;6.51;49.39
50977;BME280;36992;48.200;12.418;2023-03-03T01:41:21;96781.94;;;6.49;49.43
50977;BME280;36992;48.200;12.418;2023-03-03T01:43:49;96781.94;;;6.49;49.38
50977;BME280;36992;48.200;12.418;2023-03-03T01:46:38;96774.19;;;6.53;48.58
50977;BME280;36992;48.200;12.418;2023-03-03T01:49:11;96776.59;;;6.49;48.95
50977;BME280;36992;48.200;12.418;2023-03-03T01:51:44;96775.81;;;6.48;49.13
50977;BME280;36992;48.200;12.418;2023-03-03T01:54:18;96775.00;;;6.48;48.90
50977;BME280;36992;48.200;12.418;2023-03-03T01:56:45;96766.94;;;6.43;49.25
50977;BME280;36992;48.200;12.418;2023-03-03T01:59:16;96775.53;;;6.45;48.72
50977;BME280;36992;48.200;12.418;2023-03-03T02:01:44;96765.59;;;6.40;49.23
50977;BME280;36992;48.200;12.418;2023-03-03T02:04:12;96768.00;;;6.37;49.24
50977;BME280;36992;48.200;12.418;2023-03-03T02:06:43;96767.22;;;6.36;48.94
50977;BME280;36992;48.200;12.418;2023-03-03T02:09:15;96769.88;;;6.31;49.18
50977;BME280;36992;48.200;12.418;2023-03-03T02:11:44;96771.69;;;6.25;49.49
50977;BME280;36992;48.200;12.418;2023-03-03T02:14:12;96767.13;;;6.20;49.48
50977;BME280;36992;48.200;12.418;2023-03-03T02:16:39;96765.50;;;6.14;49.59
50977;BME280;36992;48.200;12.418;2023-03-03T02:19:12;96770.06;;;6.14;49.37
50977;BME280;36992;48.200;12.418;2023-03-03T02:21:42;96778.88;;;6.04;49.55
50977;BME280;36992;48.200;12.418;2023-03-03T02:24:17;96772.69;;;6.03;49.38
50977;BME280;36992;48.200;12.418;2023-03-03T02:26:47;96776.13;;;5.99;49.79
50977;BME280;36992;48.200;12.418;2023-03-03T02:29:13;96775.28;;;5.93;49.73
50977;BME280;36992;48.200;12.418;2023-03-03T02:31:40;96778.25;;;5.91;50.16
50977;BME280;36992;48.200;12.418;2023-03-03T02:34:07;96772.34;;;5.89;50.29
50977;BME280;36992;48.200;12.418;2023-03-03T02:36:35;96773.16;;;5.90;50.09
50977;BME280;36992;48.200;12.418;2023-03-03T02:39:04;96775.81;;;5.90;50.17
50977;BME280;36992;48.200;12.418;2023-03-03T02:41:34;96770.47;;;5.90;50.24
50977;BME280;36992;48.200;12.418;2023-03-03T02:44:04;96764.31;;;5.89;50.13
50977;BME280;36992;48.200;12.418;2023-03-03T02:46:33;96770.72;;;5.88;50.21
50977;BME280;36992;48.200;12.418;2023-03-03T02:49:00;96761.34;;;5.86;50.41
50977;BME280;36992;48.200;12.418;2023-03-03T02:51:26;96768.59;;;5.85;50.03
50977;BME280;36992;48.200;12.418;2023-03-03T02:53:53;96766.16;;;5.84;50.25
50977;BME280;36992;48.200;12.418;2023-03-03T02:56:19;96757.59;;;5.81;50.29
50977;BME280;36992;48.200;12.418;2023-03-03T02:58:46;96761.31;;;5.80;50.45
50977;BME280;36992;48.200;12.418;2023-03-03T03:01:13;96754.91;;;5.81;50.24
50977;BME280;36992;48.200;12.418;2023-03-03T03:03:40;96760.78;;;5.78;50.18
50977;BME280;36992;48.200;12.418;2023-03-03T03:06:07;96769.31;;;5.75;50.34
50977;BME280;36992;48.200;12.418;2023-03-03T03:08:33;96765.84;;;5.75;50.35
50977;BME280;36992;48.200;12.418;2023-03-03T03:11:00;96770.66;;;5.73;50.50
50977;BME280;36992;48.200;12.418;2023-03-03T03:13:26;96765.81;;;5.70;50.30
50977;BME280;36992;48.200;12.418;2023-03-03T03:15:53;96770.63;;;5.67;50.61
50977;BME280;36992;48.200;12.418;2023-03-03T03:18:20;96766.34;;;5.66;50.35
50977;BME280;36992;48.200;12.418;2023-03-03T03:20:47;96766.84;;;5.63;50.57
50977;BME280;36992;48.200;12.418;2023-03-03T03:23:14;96763.66;;;5.61;50.62
50977;BME280;36992;48.200;12.418;2023-03-03T03:25:40;96770.31;;;5.59;50.94
50977;BME280;36992;48.200;12.418;2023-03-03T03:28:10;96774.84;;;5.58;50.97
50977;BME280;36992;48.200;12.418;2023-03-03T03:30:37;96779.41;;;5.58;51.09
50977;BME280;36992;48.200;12.418;2023-03-03T03:33:04;96779.41;;;5.58;50.96
50977;BME280;36992;48.200;12.418;2023-03-03T03:35:33;96778.88;;;5.61;50.95
50977;BME280;36992;48.200;12.418;2023-03-03T03:37:59;96777.25;;;5.60;50.89
50977;BME280;36992;48.200;12.418;2023-03-03T03:40:26;96768.16;;;5.61;50.99
50977;BME280;36992;48.200;12.418;2023-03-03T03:42:53;96775.94;;;5.62;50.91
50977;BME280;36992;48.200;12.418;2023-03-03T03:45:20;96779.41;;;5.63;50.86
50977;BME280;36992;48.200;12.418;2023-03-03T03:47:47;96783.72;;;5.64;51.01
50977;BME280;36992;48.200;12.418;2023-03-03T03:50:14;96784.75;;;5.63;50.81
50977;BME280;36992;48.200;12.418;2023-03-03T03:52:41;96781.56;;;5.66;50.74
50977;BME280;36992;48.200;12.418;2023-03-03T03:55:09;96783.72;;;5.64;50.79
50977;BME280;36992;48.200;12.418;2023-03-03T03:57:35;96774.88;;;5.63;51.04
50977;BME280;36992;48.200;12.418;2023-03-03T04:00:03;96776.72;;;5.63;50.78
50977;BME280;36992;48.200;12.418;2023-03-03T04:02:30;96776.72;;;5.63;50.98
50977;BME280;36992;48.200;12.418;2023-03-03T04:04:56;96776.72;;;5.63;50.97
50977;BME280;36992;48.200;12.418;2023-03-03T04:07:22;96775.13;;;5.62;51.13
50977;BME280;36992;48.200;12.418;2023-03-03T04:09:50;96779.41;;;5.63;50.80
50977;BME280;36992;48.200;12.418;2023-03-03T04:12:17;96773.53;;;5.61;51.09
50977;BME280;36992;48.200;12.418;2023-03-03T04:14:43;96778.06;;;5.60;51.17
50977;BME280;36992;48.200;12.418;2023-03-03T04:17:15;96778.34;;;5.64;50.88
50977;BME280;36992;48.200;12.418;2023-03-03T04:19:41;96777.78;;;5.62;51.17
50977;BME280;36992;48.200;12.418;2023-03-03T04:22:08;96789.06;;;5.64;51.26
50977;BME280;36992;48.200;12.418;2023-03-03T04:24:34;96782.63;;;5.65;51.09
50977;BME280;36992;48.200;12.418;2023-03-03T04:27:02;96783.19;;;5.67;51.03
50977;BME280;36992;48.200;12.418;2023-03-03T04:29:29;96784.00;;;5.67;51.17
50977;BME280;36992;48.200;12.418;2023-03-03T04:31:55;96785.06;;;5.66;51.21
50977;BME280;36992;48.200;12.418;2023-03-03T04:34:22;96782.09;;;5.68;51.23
50977;BME280;36992;48.200;12.418;2023-03-03T04:36:48;96778.38;;;5.69;51.31
50977;BME280;36992;48.200;12.418;2023-03-03T04:39:15;96777.31;;;5.70;51.23
50977;BME280;36992;48.200;12.418;2023-03-03T04:41:42;96769.84;;;5.72;51.23
50977;BME280;36992;48.200;12.418;2023-03-03T04:44:10;96777.63;;;5.74;50.86
50977;BME280;36992;48.200;12.418;2023-03-03T04:46:36;96782.13;;;5.73;51.24
50977;BME280;36992;48.200;12.418;2023-03-03T04:49:02;96777.63;;;5.74;51.18
50977;BME280;36992;48.200;12.418;2023-03-03T04:51:31;96776.00;;;5.73;51.22
50977;BME280;36992;48.200;12.418;2023-03-03T04:53:57;96773.59;;;5.71;51.05
50977;BME280;36992;48.200;12.418;2023-03-03T04:56:23;96779.72;;;5.72;51.09
50977;BME280;36992;48.200;12.418;2023-03-03T04:58:50;96785.34;;;5.70;51.23
50977;BME280;36992;48.200;12.418;2023-03-03T05:01:18;96790.69;;;5.70;51.23
50977;BME280;36992;48.200;12.418;2023-03-03T05:03:44;96784.00;;;5.67;51.27
50977;BME280;36992;48.200;12.418;2023-03-03T05:06:11;96778.66;;;5.67;51.41
50977;BME280;36992;48.200;12.418;2023-03-03T05:08:38;96781.31;;;5.67;51.52
50977;BME280;36992;48.200;12.418;2023-03-03T05:11:04;96779.44;;;5.68;51.37
50977;BME280;36992;48.200;12.418;2023-03-03T05:13:30;96787.19;;;5.70;51.22
50977;BME280;36992;48.200;12.418;2023-03-03T05:15:57;96782.69;;;5.70;51.40
50977;BME280;36992;48.200;12.418;2023-03-03T05:18:25;96775.19;;;5.72;51.32
50977;BME280;36992;48.200;12.418;2023-03-03T05:20:52;96776.50;;;5.70;51.59
50977;BME280;36992;48.200;12.418;2023-03-03T05:23:20;96775.69;;;5.69;51.38
50977;BME280;36992;48.200;12.418;2023-03-03T05:25:47;96778.66;;;5.67;51.56
50977;BME280;36992;48.200;12.418;2023-03-03T05:28:13;96784.78;;;5.68;51.33
50977;BME280;36992;48.200;12.418;2023-03-03T05:30:40;96775.97;;;5.67;51.50
50977;BME280;36992;48.200;12.418;2023-03-03T05:33:06;96789.06;;;5.69;51.24
50977;BME280;36992;48.200;12.418;2023-03-03T05:35:34;96788.03;;;5.70;51.38
50977;BME280;36992;48.200;12.418;2023-03-03T05:38:01;96791.72;;;5.69;51.59
50977;BME280;36992;48.200;12.418;2023-03-03T05:40:27;96799.75;;;5.69;51.45
50977;BME280;36992;48.200;12.418;2023-03-03T05:42:54;96801.38;;;5.70;51.45
50977;BME280;36992;48.200;12.418;2023-03-03T05:45:20;96807.50;;;5.71;51.35
50977;BME280;36992;48.200;12.418;2023-03-03T05:47:49;96804.84;;;5.71;51.55
50977;BME280;36992;48.200;12.418;2023-03-03T05:50:16;96801.09;;;5.72;51.50
50977;BME280;36992;48.200;12.418;2023-03-03T05:52:46;96807.56;;;5.76;51.24
50977;BME280;36992;48.200;12.418;2023-03-03T05:55:13;96805.41;;;5.73;51.53
50977;BME280;36992;48.200;12.418;2023-03-03T05:57:39;96817.44;;;5.75;51.67
50977;BME280;36992;48.200;12.418;2023-03-03T06:00:07;96811.03;;;5.76;51.50
50977;BME280;36992;48.200;12.418;2023-03-03T06:02:34;96820.66;;;5.77;51.69
50977;BME280;36992;48.200;12.418;2023-03-03T06:05:00;96810.75;;;5.78;51.71
50977;BME280;36992;48.200;12.418;2023-03-03T06:07:27;96815.31;;;5.77;51.43
50977;BME280;36992;48.200;12.418;2023-03-03T06:09:55;96818.53;;;5.79;51.43
50977;BME280;36992;48.200;12.418;2023-03-03T06:12:21;96822.53;;;5.77;51.51
50977;BME280;36992;48.200;12.418;2023-03-03T06:14:47;96833.22;;;5.77;51.70
50977;BME280;36992;48.200;12.418;2023-03-03T06:17:14;96830.53;;;5.77;51.78
50977;BME280;36992;48.200;12.418;2023-03-03T06:19:40;96835.88;;;5.77;51.65
50977;BME280;36992;48.200;12.418;2023-03-03T06:22:07;96841.25;;;5.77;51.66
50977;BME280;36992;48.200;12.418;2023-03-03T06:24:34;96839.63;;;5.76;51.57
50977;BME280;36992;48.200;12.418;2023-03-03T06:27:02;96839.13;;;5.79;51.56
50977;BME280;36992;48.200;12.418;2023-03-03T06:29:28;96845.78;;;5.76;52.03
50977;BME280;36992;48.200;12.418;2023-03-03T06:31:55;96837.78;;;5.76;52.03
50977;BME280;36992;48.200;12.418;2023-03-03T06:34:21;96841.78;;;5.74;52.01
50977;BME280;36992;48.200;12.418;2023-03-03T06:36:48;96844.69;;;5.72;52.10
50977;BME280;36992;48.200;12.418;2023-03-03T06:39:14;96843.09;;;5.71;51.82
50977;BME280;36992;48.200;12.418;2023-03-03T06:41:41;96836.13;;;5.70;52.10
50977;BME280;36992;48.200;12.418;2023-03-03T06:44:09;96842.03;;;5.72;51.96
50977;BME280;36992;48.200;12.418;2023-03-03T06:46:36;96840.41;;;5.71;52.10
50977;BME280;36992;48.200;12.418;2023-03-03T06:49:03;96843.63;;;5.73;52.03
50977;BME280;36992;48.200;12.418;2023-03-03T06:51:31;96844.97;;;5.76;52.15
50977;BME280;36992;48.200;12.418;2023-03-03T06:54:01;96849.81;;;5.79;51.95
50977;BME280;36992;48.200;12.418;2023-03-03T06:56:33;96856.78;;;5.80;51.86
50977;BME280;36992;48.200;12.418;2023-03-03T06:59:01;96857.84;;;5.79;52.07
50977;BME280;36992;48.200;12.418;2023-03-03T07:01:34;96860.81;;;5.83;51.75
50977;BME280;36992;48.200;12.418;2023-03-03T07:04:06;96864.03;;;5.85;51.69
50977;BME280;36992;48.200;12.418;2023-03-03T07:06:36;96864.53;;;5.81;52.02
50977;BME280;36992;48.200;12.418;2023-03-03T07:09:07;96860.28;;;5.86;51.98
50977;BME280;36992;48.200;12.418;2023-03-03T07:11:34;96865.88;;;5.84;52.11
50977;BME280;36992;48.200;12.418;2023-03-03T07:14:13;96874.19;;;5.88;51.37
50977;BME280;36992;48.200;12.418;2023-03-03T07:16:42;96874.72;;;5.85;52.25
50977;BME280;36992;48.200;12.418;2023-03-03T07:19:18;96877.13;;;5.86;51.78
50977;BME280;36992;48.200;12.418;2023-03-03T07:21:46;96887.53;;;5.83;52.03
50977;BME280;36992;48.200;12.418;2023-03-03T07:24:25;96889.44;;;5.87;51.89
50977;BME280;36992;48.200;12.418;2023-03-03T07:26:54;96890.75;;;5.85;52.02
50977;BME280;36992;48.200;12.418;2023-03-03T07:29:25;96889.69;;;5.86;52.02
50977;BME280;36992;48.200;12.418;2023-03-03T07:31:54;96896.41;;;5.88;52.26
50977;BME280;36992;48.200;12.418;2023-03-03T07:34:22;96891.03;;;5.88;52.21
50977;BME280;36992;48.200;12.418;2023-03-03T07:36:52;96897.22;;;5.89;51.82
50977;BME280;36992;48.200;12.418;2023-03-03T07:39:33;96904.22;;;5.95;51.35
50977;BME280;36992;48.200;12.418;2023-03-03T07:42:15;96902.88;;;5.98;51.54
50977;BME280;36992;48.200;12.418;2023-03-03T07:44:43;96906.59;;;5.97;51.96
50977;BME280;36992;48.200;12.418;2023-03-03T07:47:18;96905.84;;;6.01;51.74
50977;BME280;36992;48.200;12.418;2023-03-03T07:49:46;96909.56;;;6.00;51.98
50977;BME280;36992;48.200;12.418;2023-03-03T07:52:22;96911.25;;;6.06;51.58
50977;BME280;36992;48.200;12.418;2023-03-03T07:54:50;96907.78;;;6.06;51.91
50977;BME280;36992;48.200;12.418;2023-03-03T07:57:21;96905.94;;;6.12;51.74
50977;BME280;36992;48.200;12.418;2023-03-03T07:59:51;96910.50;;;6.11;52.17
50977;BME280;36992;48.200;12.418;2023-03-03T08:02:40;96912.66;;;6.19;51.53
50977;BME280;36992;48.200;12.418;2023-03-03T08:05:28;96912.16;;;6.23;50.88
50977;BME280;36992;48.200;12.418;2023-03-03T08:08:01;96914.28;;;6.20;51.61
50977;BME280;36992;48.200;12.418;2023-03-03T08:10:35;96914.56;;;6.24;51.55
50977;BME280;36992;48.200;12.418;2023-03-03T08:13:14;96910.81;;;6.25;51.34
50977;BME280;36992;48.200;12.418;2023-03-03T08:15:43;96910.81;;;6.25;52.01
50977;BME280;36992;48.200;12.418;2023-03-03T08:18:20;96910.31;;;6.28;51.59
50977;BME280;36992;48.200;12.418;2023-03-03T08:20:50;96914.59;;;6.29;51.58
50977;BME280;36992;48.200;12.418;2023-03-03T08:23:19;96910.84;;;6.30;52.16
50977;BME280;36992;48.200;12.418;2023-03-03T08:25:47;96921.56;;;6.30;52.55
50977;BME280;36992;48.200;12.418;2023-03-03T08:28:13;96917.00;;;6.31;52.20
50977;BME280;36992;48.200;12.418;2023-03-03T08:30:41;96918.63;;;6.32;52.15
50977;BME280;36992;48.200;12.418;2023-03-03T08:33:08;96918.88;;;6.30;52.44
50977;BME280;36992;48.200;12.418;2023-03-03T08:35:35;96916.75;;;6.32;52.57
50977;BME280;36992;48.200;12.418;2023-03-03T08:38:03;96912.75;;;6.30;52.53
50977;BME280;36992;48.200;12.418;2023-03-03T08:40:30;96913.53;;;6.30;52.25
50977;BME280;36992;48.200;12.418;2023-03-03T08:42:56;96924.22;;;6.30;52.26
50977;BME280;36992;48.200;12.418;2023-03-03T08:45:23;96912.19;;;6.33;52.69
50977;BME280;36992;48.200;12.418;2023-03-03T08:47:50;96918.38;;;6.33;52.69
50977;BME280;36992;48.200;12.418;2023-03-03T08:50:17;96925.34;;;6.34;52.73
50977;BME280;36992;48.200;12.418;2023-03-03T08:52:45;96921.34;;;6.37;52.48
50977;BME280;36992;48.200;12.418;2023-03-03T08:55:12;96920.25;;;6.38;52.34
50977;BME280;36992;48.200;12.418;2023-03-03T08:57:38;96925.91;;;6.42;52.71
50977;BME280;36992;48.200;12.418;2023-03-03T09:00:07;96920.84;;;6.45;52.90
50977;BME280;36992;48.200;12.418;2023-03-03T09:02:34;96923.25;;;6.47;52.56
50977;BME280;36992;48.200;12.418;2023-03-03T09:05:02;96928.06;;;6.50;52.70
50977;BME280;36992;48.200;12.418;2023-03-03T09:07:29;96925.97;;;6.52;53.06
50977;BME280;36992;48.200;12.418;2023-03-03T09:09:57;96920.06;;;6.55;52.40
50977;BME280;36992;48.200;12.418;2023-03-03T09:12:29;96924.66;;;6.60;52.14
50977;BME280;36992;48.200;12.418;2023-03-03T09:14:57;96923.31;;;6.63;52.49
50977;BME280;36992;48.200;12.418;2023-03-03T09:17:28;96925.75;;;6.69;51.86
50977;BME280;36992;48.200;12.418;2023-03-03T09:19:57;96931.41;;;6.73;51.95
50977;BME280;36992;48.200;12.418;2023-03-03T09:22:26;96931.97;;;6.80;52.38
50977;BME280;36992;48.200;12.418;2023-03-03T09:24:57;96938.41;;;6.84;51.71
50977;BME280;36992;48.200;12.418;2023-03-03T09:27:27;96938.69;;;6.88;52.19
50977;BME280;36992;48.200;12.418;2023-03-03T09:29:54;96950.22;;;6.88;52.01
50977;BME280;36992;48.200;12.418;2023-03-03T09:32:32;96945.69;;;6.94;51.62
50977;BME280;36992;48.200;12.418;2023-03-03T09:34:59;96952.09;;;6.93;51.40
50977;BME280;36992;48.200;12.418;2023-03-03T09:37:28;96948.09;;;6.96;51.48
50977;BME280;36992;48.200;12.418;2023-03-03T09:40:11;96955.09;;;7.02;51.33
50977;BME280;36992;48.200;12.418;2023-03-03T09:42:58;96949.19;;;7.05;51.43
50977;BME280;36992;48.200;12.418;2023-03-03T09:45:39;96950.28;;;7.09;51.61
50977;BME280;36992;48.200;12.418;2023-03-03T09:48:36;96955.09;;;7.12;51.30
50977;BME280;36992;48.200;12.418;2023-03-03T09:51:16;96965.56;;;7.14;51.45
50977;BME280;36992;48.200;12.418;2023-03-03T09:54:02;96966.91;;;7.17;51.07
50977;BME280;36992;48.200;12.418;2023-03-03T09:56:38;96970.69;;;7.21;51.40
50977;BME280;36992;48.200;12.418;2023-03-03T09:59:26;96962.09;;;7.24;51.22
50977;BME280;36992;48.200;12.418;2023-03-03T10:02:08;96961.59;;;7.27;51.27
50977;BME280;36992;48.200;12.418;2023-03-03T10:04:45;96960.25;;;7.29;51.29
50977;BME280;36992;48.200;12.418;2023-03-03T10:07:26;96965.34;;;7.36;51.29
50977;BME280;36992;48.200;12.418;2023-03-03T10:10:23;96966.69;;;7.39;51.07
50977;BME280;36992;48.200;12.418;2023-03-03T10:13:10;96969.66;;;7.42;50.71
50977;BME280;36992;48.200;12.418;2023-03-03T10:15:49;96955.16;;;7.43;50.83
50977;BME280;36992;48.200;12.418;2023-03-03T10:18:28;96960.00;;;7.47;51.17
50977;BME280;36992;48.200;12.418;2023-03-03T10:21:02;96969.41;;;7.49;51.44
50977;BME280;36992;48.200;12.418;2023-03-03T10:23:52;96970.19;;;7.55;50.80
50977;BME280;36992;48.200;12.418;2023-03-03T10:26:29;96972.63;;;7.56;51.13
50977;BME280;36992;48.200;12.418;2023-03-03T10:29:12;96969.13;;;7.61;50.99
50977;BME280;36992;48.200;12.418;2023-03-03T10:31:54;96968.63;;;7.64;51.11
50977;BME280;36992;48.200;12.418;2023-03-03T10:34:42;96966.22;;;7.68;50.84
50977;BME280;36992;48.200;12.418;2023-03-03T10:37:16;96969.16;;;7.72;50.72
50977;BME280;36992;48.200;12.418;2023-03-03T10:39:59;96969.16;;;7.77;50.28
50977;BME280;36992;48.200;12.418;2023-03-03T10:42:42;96972.91;;;7.81;50.65
50977;BME280;36992;48.200;12.418;2023-03-03T10:45:30;96970.50;;;7.85;50.72
50977;BME280;36992;48.200;12.418;2023-03-03T10:48:20;96965.94;;;7.90;50.39
50977;BME280;36992;48.200;12.418;2023-03-03T10:50:56;96970.75;;;7.93;50.73
50977;BME280;36992;48.200;12.418;2023-03-03T10:53:31;96966.47;;;7.97;50.72
50977;BME280;36992;48.200;12.418;2023-03-03T10:56:10;96962.19;;;8.02;50.52
50977;BME280;36992;48.200;12.418;2023-03-03T10:58:45;96971.03;;;8.07;50.66
50977;BME280;36992;48.200;12.418;2023-03-03T11:01:22;96967.00;;;8.10;50.41
50977;BME280;36992;48.200;12.418;2023-03-03T11:04:06;96969.69;;;8.15;50.42
50977;BME280;36992;48.200;12.418;2023-03-03T11:06:42;96969.13;;;8.18;50.26
50977;BME280;36992;48.200;12.418;2023-03-03T11:09:18;96970.22;;;8.22;50.62
50977;BME280;36992;48.200;12.418;2023-03-03T11:11:53;96968.06;;;8.24;50.49
50977;BME280;36992;48.200;12.418;2023-03-03T11:14:28;96960.56;;;8.27;50.36
50977;BME280;36992;48.200;12.418;2023-03-03T11:17:00;96962.69;;;8.30;50.55
50977;BME280;36992;48.200;12.418;2023-03-03T11:19:42;96958.94;;;8.31;50.21
50977;BME280;36992;48.200;12.418;2023-03-03T11:22:28;96957.59;;;8.33;50.18
50977;BME280;36992;48.200;12.418;2023-03-03T11:25:04;96954.13;;;8.33;50.44
50977;BME280;36992;48.200;12.418;2023-03-03T11:27:57;96955.16;;;8.37;49.97
50977;BME280;36992;48.200;12.418;2023-03-03T11:30:34;96947.41;;;8.35;50.34
50977;BME280;36992;48.200;12.418;2023-03-03T11:33:09;96949.78;;;8.37;50.19
50977;BME280;36992;48.200;12.418;2023-03-03T11:35:43;96944.97;;;8.39;50.24
50977;BME280;36992;48.200;12.418;2023-03-03T11:38:31;96934.19;;;8.44;50.16
50977;BME280;36992;48.200;12.418;2023-03-03T11:41:07;96942.53;;;8.48;50.23
50977;BME280;36992;48.200;12.418;2023-03-03T11:43:41;96940.13;;;8.52;50.53
50977;BME280;36992;48.200;12.418;2023-03-03T11:46:12;96933.13;;;8.56;50.51
50977;BME280;36992;48.200;12.418;2023-03-03T11:48:46;96932.03;;;8.62;50.47
50977;BME280;36992;48.200;12.418;2023-03-03T11:51:21;96921.28;;;8.67;50.43
50977;BME280;36992;48.200;12.418;2023-03-03T11:53:57;96924.47;;;8.74;50.09
50977;BME280;36992;48.200;12.418;2023-03-03T11:56:27;96924.44;;;8.80;50.16
50977;BME280;36992;48.200;12.418;2023-03-03T11:59:04;96910.44;;;8.88;49.80
50977;BME280;36992;48.200;12.418;2023-03-03T12:01:38;96921.97;;;8.94;49.98
50977;BME280;36992;48.200;12.418;2023-03-03T12:04:11;96921.16;;;8.98;49.50
50977;BME280;36992;48.200;12.418;2023-03-03T12:07:02;96923.53;;;9.05;49.46
50977;BME280;36992;48.200;12.418;2023-03-03T12:09:39;96915.72;;;9.09;49.69
50977;BME280;36992;48.200;12.418;2023-03-03T12:12:13;96915.16;;;9.12;49.29
50977;BME280;36992;48.200;12.418;2023-03-03T12:14:53;96912.19;;;9.18;49.43
50977;BME280;36992;48.200;12.418;2023-03-03T12:17:41;96909.72;;;9.22;49.20
50977;BME280;36992;48.200;12.418;2023-03-03T12:20:21;96914.53;;;9.25;48.60
50977;BME280;36992;48.200;12.418;2023-03-03T12:22:57;96908.63;;;9.28;48.80
50977;BME280;36992;48.200;12.418;2023-03-03T12:25:33;96900.53;;;9.34;48.30
50977;BME280;36992;48.200;12.418;2023-03-03T12:28:05;96898.34;;;9.36;48.95
50977;BME280;36992;48.200;12.418;2023-03-03T12:30:48;96898.84;;;9.43;49.18
50977;BME280;36992;48.200;12.418;2023-03-03T12:33:31;96896.13;;;9.48;48.92
50977;BME280;36992;48.200;12.418;2023-03-03T12:36:13;96906.56;;;9.55;48.18
50977;BME280;36992;48.200;12.418;2023-03-03T12:38:48;96896.59;;;9.55;47.95
50977;BME280;36992;48.200;12.418;2023-03-03T12:41:22;96892.81;;;9.56;47.83
50977;BME280;36992;48.200;12.418;2023-03-03T12:44:02;96895.47;;;9.62;48.00
50977;BME280;36992;48.200;12.418;2023-03-03T12:46:41;96888.72;;;9.64;47.88
50977;BME280;36992;48.200;12.418;2023-03-03T12:49:10;96893.31;;;9.64;47.44
50977;BME280;36992;48.200;12.418;2023-03-03T12:51:47;96890.81;;;9.72;47.84
50977;BME280;36992;48.200;12.418;2023-03-03T12:54:29;96883.50;;;9.78;47.53
50977;BME280;36992;48.200;12.418;2023-03-03T12:57:04;96883.75;;;9.82;47.52
50977;BME280;36992;48.200;12.418;2023-03-03T12:59:40;96877.50;;;9.87;47.06
50977;BME280;36992;48.200;12.418;2023-03-03T13:02:40;96876.38;;;9.93;47.14
50977;BME280;36992;48.200;12.418;2023-03-03T13:05:18;96884.41;;;9.98;46.47
50977;BME280;36992;48.200;12.418;2023-03-03T13:07:54;96878.75;;;9.99;46.96
50977;BME280;36992;48.200;12.418;2023-03-03T13:10:26;96877.38;;;10.02;47.07
50977;BME280;36992;48.200;12.418;2023-03-03T13:12:59;96881.09;;;10.06;46.07
50977;BME280;36992;48.200;12.418;2023-03-03T13:15:27;96878.41;;;10.06;47.38
50977;BME280;36992;48.200;12.418;2023-03-03T13:18:03;96874.06;;;10.10;47.62
50977;BME280;36992;48.200;12.418;2023-03-03T13:20:38;96870.50;;;10.15;47.58
50977;BME280;36992;48.200;12.418;2023-03-03T13:23:09;96869.53;;;10.30;47.54